Terminal Aerodrome Forecast
Issued by NWS Cleveland, OH

Home | Current Version | Previous Version | Text Only | Print | Product List | Glossary Off
Versions: 1 2 3 4 5 6 7 8 9 10 11 12 13 14 15

884
FTUS41 KCLE 221136
TAFCAK
TAF
KCAK 221136Z 2212/2312 VRB03KT P6SM SCT250
     FM221500 20006KT P6SM BKN250
     FM230000 18003KT P6SM SCT250=

USA.gov is the U.S. government's official web portal to all federal, state and local government web resources and services.